LEVX/VGO METAR and TAF weather

Enter ICAO airport designator
Station Type Date Time Source
LEVX METAR 2022/12/08 11:30 UTC NOAA

LEVX 081130Z VRB06KT 9999 BKN023 BKN030 BKN037 14/11 Q0997 TEMPO 3000 RA


Station Type Date Time Source
LEVX Decoded METAR 2022/12/08 11:30 UTC NOAA

Vigo / Peinador, Spain (LEVX) 42-13N 008-38W 255M
Dec 08, 2022 - 06:30 AM EST / 2022.12.08 1130 UTC
Wind: Variable at 7 MPH (6 KT):0
Visibility: greater than 7 mile(s):0
Sky conditions: mostly cloudy
Temperature: 57 F (14 C)
Dew Point: 51 F (11 C)
Relative Humidity: 82%
Pressure (altimeter): 29.44 in. Hg (0997 hPa)
ob: LEVX 081130Z VRB06KT 9999 BKN023 BKN030 BKN037 14/11 Q0997 TEMPO 3000 RA
cycle: 11

Station Type Date Time Source
LEVX TAF 2022/12/08 12:27 UTC NOAA

TAF LEVX 081100Z 0812/0912 14007KT 9999 BKN020 BKN045 TX13/0813Z TN11/0907Z PROB30
TEMPO 0812/0824 3000 RA BKN010 SCT020TCU
TEMPO 0900/0912 3000 RA BKN010
TEMPO 0904/0912 06010KT

Example: see airport list